Main page
METAR-TAF:

METAR-TAF

Airports :

Cornwall Airport Newquay

Newquay Cornwall, England

latitude: 50-26N, longitude: 005-00W, elevation: 119 m

Current weather observation

The report was made 29 minutes ago, at 20:50 UTC
Wind 2 kt from variable directions
Temperature
Pressure 1037 hPa
Visibility 10 km or more

METAR: EGHQ 222050Z AUTO VRB02KT 9999 OVC024/// ///// Q1037

Time: 21:19 (21:19 UTC)

Forecast

The report was made 4 hours and 25 minutes ago, at 16:54 UTC
Forecast valid from 22 at 18 UTC to 23 at 03 UTC
Wind 5 kt from the North
Visibility 10 km or more
Broken clouds at a height of 2400 ft

TAF: EGHQ 221654Z 2218/2303 35005KT 9999 BKN024

Weather observations and forecasts of more than 4000 airports (METAR and TAF reports).

The available stations are represented by yellow and red dots on the map.

Hover mouse over dot to see the name of the station.

Then click to see weather observations and forecasts.

To change the map : click on the green buttons with a black cross to zoom in, on the green button with a dash to zoom out, or on the green arrows for adjacent maps.


METAR-TAF: